Time;durP1;ratioP1;P1;durP2;ratioP2;P2;SDS_P1;SDS_P2;PMS_P1;PMS_P2;Temp;Humidity;BMP_temperature;BMP_pressure;BME280_temperature;BME280_humidity;BME280_pressure;Samples;Min_cycle;Max_cycle;Signal;HPM_P1;HPM_P2
2021/10/28 00:14:22;;;;;;;16.00;13.70;;;;;;;13.31;63.70;101343.05;118705;1174;21871;-74
2021/10/28 00:16:52;;;;;;;16.10;13.70;;;;;;;13.32;63.88;101339.57;118484;1176;21952;-74
2021/10/28 00:19:20;;;;;;;15.40;13.80;;;;;;;13.33;63.78;101342.83;118469;1174;23518;-74
2021/10/28 00:21:51;;;;;;;18.40;13.70;;;;;;;13.34;63.78;101341.80;118424;1176;21864;-74
2021/10/28 00:24:19;;;;;;;21.20;15.10;;;;;;;13.34;63.71;101338.98;118456;1174;21870;-74
2021/10/28 00:26:49;;;;;;;15.30;13.10;;;;;;;13.35;63.71;101337.10;118724;1173;21861;-73
2021/10/28 00:29:20;;;;;;;14.30;12.80;;;;;;;13.33;63.49;101343.36;118133;1177;22897;-74
2021/10/28 00:31:49;;;;;;;16.10;13.40;;;;;;;13.26;63.48;101343.29;118246;1171;21863;-74
2021/10/28 00:34:17;;;;;;;14.80;13.10;;;;;;;13.22;63.60;101343.52;118519;1174;23414;-73
2021/10/28 00:36:48;;;;;;;14.10;12.70;;;;;;;13.20;63.70;101345.67;118424;1176;21870;-73
2021/10/28 00:39:16;;;;;;;16.10;13.90;;;;;;;13.17;63.87;101347.39;118291;1177;21881;-73
2021/10/28 00:41:44;;;;;;;15.60;14.00;;;;;;;13.16;64.00;101347.45;118225;1175;22890;-74
2021/10/28 00:44:12;;;;;;;15.60;13.90;;;;;;;13.16;64.02;101346.65;118207;1179;22055;-74
2021/10/28 00:46:40;;;;;;;14.80;12.80;;;;;;;13.13;63.89;101341.33;118216;1179;22916;-74
2021/10/28 00:49:11;;;;;;;16.50;14.70;;;;;;;13.11;64.01;101336.91;117875;1181;22757;-74
2021/10/28 00:51:42;;;;;;;16.20;14.60;;;;;;;13.11;64.05;101341.36;117920;1181;22359;-73
2021/10/28 00:54:17;;;;;;;17.10;15.40;;;;;;;13.08;64.19;101339.02;118060;1177;22357;-73
2021/10/28 00:56:48;;;;;;;19.60;16.20;;;;;;;13.07;64.17;101335.04;118606;1176;22381;-74
2021/10/28 00:59:16;;;;;;;19.60;16.50;;;;;;;13.08;64.28;101339.03;118683;1176;22799;-73
2021/10/28 01:01:44;;;;;;;17.60;15.80;;;;;;;13.09;64.36;101334.58;118565;1176;22438;-74
2021/10/28 01:04:12;;;;;;;17.40;15.60;;;;;;;13.12;64.59;101329.85;118714;1174;21852;-73
2021/10/28 01:06:40;;;;;;;19.10;17.20;;;;;;;13.14;64.45;101331.42;118878;1170;23600;-73
2021/10/28 01:09:09;;;;;;;19.20;17.30;;;;;;;13.14;64.30;101329.81;119201;1170;21869;-74
2021/10/28 01:11:38;;;;;;;18.80;16.90;;;;;;;13.14;64.17;101326.84;119196;1164;23422;-74
2021/10/28 01:14:06;;;;;;;17.60;15.80;;;;;;;13.12;64.12;101328.48;118920;1171;21874;-73
2021/10/28 01:16:34;;;;;;;18.20;16.50;;;;;;;13.11;64.24;101326.43;119176;1170;21869;-74
2021/10/28 01:19:02;;;;;;;18.80;16.90;;;;;;;13.10;64.10;101325.16;118913;1171;23514;-74
2021/10/28 01:21:30;;;;;;;19.40;17.40;;;;;;;13.10;64.16;101324.24;119100;1170;23608;-74
2021/10/28 01:23:58;;;;;;;18.90;17.00;;;;;;;13.10;64.25;101322.81;119228;1170;21858;-73
2021/10/28 01:26:26;;;;;;;20.00;18.00;;;;;;;13.12;64.29;101322.13;119124;1170;22351;-73
2021/10/28 01:29:03;;;;;;;21.50;18.80;;;;;;;13.12;64.32;101322.42;119166;1170;21872;-73
2021/10/28 01:31:34;;;;;;;20.50;18.40;;;;;;;13.13;64.42;101321.80;119228;1170;22862;-73
2021/10/28 01:34:06;;;;;;;19.50;17.60;;;;;;;13.10;63.95;101320.20;119236;1170;21871;-73
2021/10/28 01:36:34;;;;;;;19.10;16.90;;;;;;;13.04;64.16;101317.81;118898;1171;21868;-73
2021/10/28 01:39:17;;;;;;;21.20;18.40;;;;;;;12.98;64.21;101318.30;118868;1169;23572;-74
2021/10/28 01:41:45;;;;;;;20.60;18.50;;;;;;;12.92;64.35;101317.47;118326;1176;21904;-73
2021/10/28 01:44:13;;;;;;;21.60;18.20;;;;;;;12.90;64.50;101318.56;118564;1176;23640;-74
2021/10/28 01:46:41;;;;;;;21.00;18.10;;;;;;;12.90;64.80;101317.30;118537;1176;21866;-74
2021/10/28 01:49:25;;;;;;;19.40;17.40;;;;;;;12.91;64.85;101317.61;118559;1172;23476;-74
2021/10/28 01:51:53;;;;;;;20.10;18.10;;;;;;;12.91;64.83;101316.14;118231;1177;21914;-73
2021/10/28 01:54:23;;;;;;;20.20;18.10;;;;;;;12.92;64.81;101316.22;118212;1176;21873;-73
2021/10/28 01:56:52;;;;;;;22.00;19.80;;;;;;;12.91;64.78;101315.48;118159;1179;23521;-74
2021/10/28 01:59:20;;;;;;;19.60;17.70;;;;;;;12.89;64.63;101314.95;117867;1174;22901;-74
2021/10/28 02:01:48;;;;;;;20.70;18.70;;;;;;;12.87;64.67;101312.31;117476;1184;21890;-73
2021/10/28 02:04:17;;;;;;;21.60;19.50;;;;;;;12.86;64.71;101310.89;117734;1181;22353;-73
2021/10/28 02:06:45;;;;;;;20.60;18.30;;;;;;;12.85;64.68;101310.79;117918;1179;21880;-74
2021/10/28 02:09:12;;;;;;;21.00;18.90;;;;;;;12.83;64.83;101309.94;118251;1171;21892;-74
2021/10/28 02:11:40;;;;;;;22.00;19.10;;;;;;;12.83;64.97;101308.85;118187;1179;23421;-74
2021/10/28 02:14:08;;;;;;;20.20;18.10;;;;;;;12.84;64.91;101309.81;118219;1179;21975;-74
2021/10/28 02:16:36;;;;;;;19.90;16.70;;;;;;;12.83;64.68;101310.66;118143;1175;23579;-73
2021/10/28 02:19:04;;;;;;;18.50;16.50;;;;;;;12.81;64.61;101311.53;118305;1174;23127;-73
2021/10/28 02:21:32;;;;;;;18.20;16.20;;;;;;;12.77;64.64;101312.57;118877;1174;21860;-73
2021/10/28 02:24:00;;;;;;;18.40;16.50;;;;;;;12.75;64.82;101311.16;118811;1174;21860;-74
2021/10/28 02:26:28;;;;;;;17.90;16.30;;;;;;;12.75;64.80;101313.98;119012;1174;21858;-73
2021/10/28 02:28:56;;;;;;;17.60;15.90;;;;;;;12.73;64.76;101313.77;118363;1177;21883;-74
2021/10/28 02:31:24;;;;;;;17.20;15.50;;;;;;;12.73;65.05;101314.30;118646;1172;23601;-73
2021/10/28 02:33:52;;;;;;;20.00;18.00;;;;;;;12.76;65.04;101318.46;118578;1177;21863;-73
2021/10/28 02:36:20;;;;;;;19.10;17.10;;;;;;;12.77;64.94;101316.39;118126;1177;22086;-73
2021/10/28 02:38:48;;;;;;;20.50;18.30;;;;;;;12.78;64.70;101315.95;118265;1177;21883;-74
2021/10/28 02:41:16;;;;;;;20.80;18.70;;;;;;;12.77;64.73;101318.92;118342;1175;21889;-74
2021/10/28 02:43:44;;;;;;;20.30;18.30;;;;;;;12.75;64.66;101316.80;118335;1177;22309;-74
2021/10/28 02:46:12;;;;;;;20.90;18.40;;;;;;;12.74;64.68;101314.73;118581;1174;23499;-74
2021/10/28 02:48:41;;;;;;;20.10;18.00;;;;;;;12.74;64.87;101313.85;118857;1171;22775;-74
2021/10/28 02:51:09;;;;;;;20.00;18.10;;;;;;;12.74;64.75;101312.61;119006;1173;21877;-74
2021/10/28 02:53:36;;;;;;;22.20;19.20;;;;;;;12.73;64.72;101312.35;118860;1171;23522;-75
2021/10/28 02:56:05;;;;;;;21.80;19.60;;;;;;;12.71;64.63;101314.14;118758;1174;24726;-74
2021/10/28 02:58:32;;;;;;;20.90;18.70;;;;;;;12.71;64.83;101314.36;118698;1172;21925;-74
2021/10/28 03:01:00;;;;;;;20.30;18.40;;;;;;;12.72;64.84;101319.23;118706;1174;22908;-74
2021/10/28 03:03:28;;;;;;;21.20;19.00;;;;;;;12.70;64.81;101319.89;118862;1161;21881;-74
2021/10/28 03:05:56;;;;;;;21.10;18.90;;;;;;;12.64;64.44;101320.55;118631;1175;22315;-74
2021/10/28 03:08:24;;;;;;;21.10;19.10;;;;;;;12.55;64.39;101320.21;118697;1173;23417;-73
2021/10/28 03:10:52;;;;;;;23.60;21.10;;;;;;;12.50;64.74;101323.23;118654;1174;21868;-74
2021/10/28 03:13:20;;;;;;;22.20;19.80;;;;;;;12.45;64.87;101324.79;118554;1173;21856;-73
2021/10/28 03:15:50;;;;;;;22.70;20.30;;;;;;;12.42;65.01;101327.72;119010;1170;22066;-73
2021/10/28 03:26:03;;;;;;;22.20;20.10;;;;;;;12.38;65.36;101338.02;119189;1170;21867;-74
2021/10/28 03:28:30;;;;;;;22.80;20.60;;;;;;;12.35;65.42;101342.77;118782;1174;23398;-74
2021/10/28 03:30:58;;;;;;;24.00;21.30;;;;;;;12.35;65.32;101347.58;118867;1173;21882;-75
2021/10/28 03:33:26;;;;;;;25.70;23.10;;;;;;;12.33;65.30;101350.44;118875;1173;23420;-74
2021/10/28 03:35:54;;;;;;;29.80;26.80;;;;;;;12.29;65.24;101350.88;118979;1174;21877;-74
2021/10/28 03:38:28;;;;;;;27.80;24.80;;;;;;;12.24;65.25;101348.65;118944;1171;22602;-73
2021/10/28 03:41:40;;;;;;;25.20;22.30;;;;;;;12.20;65.29;101346.20;118938;1174;21880;-73
2021/10/28 03:44:20;;;;;;;25.00;22.60;;;;;;;12.14;65.26;101350.01;118908;1173;21864;-73
2021/10/28 03:47:20;;;;;;;24.60;21.90;;;;;;;12.09;65.51;101350.19;118859;1172;22850;-73
2021/10/28 03:55:30;;;;;;;31.20;21.60;;;;;;;11.86;65.44;101348.71;119194;1168;22652;-73
2021/10/28 04:08:55;;;;;;;27.00;24.10;;;;;;;11.66;66.37;101355.14;118495;1174;21892;-74
2021/10/28 04:20:19;;;;;;;31.70;28.50;;;;;;;11.51;66.24;101362.33;118557;1173;21858;-74
2021/10/28 04:31:17;;;;;;;30.20;25.70;;;;;;;11.26;66.72;101366.67;118817;1174;21871;-74
2021/10/28 04:33:58;;;;;;;30.70;27.10;;;;;;;11.23;66.58;101368.75;118742;1174;24204;-74
2021/10/28 04:36:29;;;;;;;33.00;29.40;;;;;;;11.18;66.54;101371.01;118807;1174;21897;-73
2021/10/28 04:39:03;;;;;;;35.50;31.60;;;;;;;11.13;66.56;101369.43;118313;1169;23634;-73
2021/10/28 04:41:31;;;;;;;;;;;;;;;11.04;66.59;101369.48;118211;1178;21854;-73
2021/10/28 04:44:02;;;;;;;45.10;39.10;;;;;;;10.92;66.99;101369.79;118146;1178;21881;-73
2021/10/28 04:46:30;;;;;;;46.80;40.60;;;;;;;10.85;67.14;101371.48;118233;1165;21873;-74
2021/10/28 04:48:58;;;;;;;44.50;39.70;;;;;;;10.82;67.31;101369.52;118157;1176;23529;-73
2021/10/28 04:51:37;;;;;;;45.20;38.70;;;;;;;10.80;67.36;101371.27;117960;1179;22195;-73
2021/10/28 04:54:05;;;;;;;42.90;38.40;;;;;;;10.77;67.36;101369.06;117955;1179;21879;-73
2021/10/28 04:56:33;;;;;;;36.00;32.30;;;;;;;10.71;67.22;101368.91;118313;1176;21870;-74
2021/10/28 04:59:01;;;;;;;32.80;29.30;;;;;;;10.62;67.04;101369.43;118773;1174;22883;-73
2021/10/28 05:01:30;;;;;;;36.60;31.20;;;;;;;10.53;67.32;101370.92;118855;1172;22157;-73
2021/10/28 05:04:02;;;;;;;33.80;30.00;;;;;;;10.48;67.61;101369.14;118586;1177;22893;-73
2021/10/28 05:06:30;;;;;;;33.30;29.80;;;;;;;10.39;67.37;101371.21;118397;1174;21937;-73
2021/10/28 05:09:03;;;;;;;35.40;31.90;;;;;;;10.27;67.38;101370.73;118903;1171;21864;-73
2021/10/28 05:11:40;;;;;;;34.40;30.90;;;;;;;10.12;67.40;101374.90;118697;1173;23414;-74
2021/10/28 05:14:08;;;;;;;38.70;34.70;;;;;;;9.98;67.62;101378.95;118655;1172;21894;-74
2021/10/28 05:16:36;;;;;;;36.30;32.40;;;;;;;9.88;67.98;101377.91;118550;1176;21882;-74
2021/10/28 05:19:04;;;;;;;36.00;32.10;;;;;;;9.83;68.31;101380.69;118277;1178;23029;-74
2021/10/28 05:21:32;;;;;;;34.20;30.70;;;;;;;9.79;68.53;101384.23;118337;1174;21868;-73
2021/10/28 05:24:00;;;;;;;37.40;31.90;;;;;;;9.74;68.65;101386.09;118291;1177;21872;-73
2021/10/28 05:26:29;;;;;;;37.20;33.50;;;;;;;9.70;68.96;101389.91;118192;1178;21877;-73
2021/10/28 05:28:57;;;;;;;38.20;34.20;;;;;;;9.71;69.32;101392.46;118282;1175;23684;-74
2021/10/28 05:31:25;;;;;;;44.80;39.10;;;;;;;9.74;69.30;101395.08;118251;1178;21956;-74
2021/10/28 05:33:53;;;;;;;44.10;39.10;;;;;;;9.70;68.92;101392.24;118377;1177;21888;-74
2021/10/28 05:36:21;;;;;;;43.00;38.50;;;;;;;9.64;69.05;101393.81;118242;1176;21876;-74
2021/10/28 05:38:49;;;;;;;42.20;37.80;;;;;;;9.57;68.96;101394.80;118690;1175;21877;-75
2021/10/28 05:41:17;;;;;;;44.10;37.70;;;;;;;9.53;69.27;101398.13;118550;1175;21857;-76
2021/10/28 05:43:45;;;;;;;43.40;38.70;;;;;;;9.54;69.50;101401.57;118266;1177;24187;-73
2021/10/28 05:46:13;;;;;;;48.90;42.00;;;;;;;9.55;69.56;101404.45;118270;1177;22844;-74
2021/10/28 05:48:41;;;;;;;48.70;43.40;;;;;;;9.55;69.47;101409.35;118359;1175;23543;-76
2021/10/28 05:51:15;;;;;;;46.30;41.90;;;;;;;9.56;69.48;101410.20;118295;1177;23464;-74
2021/10/28 05:53:53;;;;;;;46.10;41.60;;;;;;;9.54;69.42;101413.01;118294;1177;22759;-74
2021/10/28 05:56:54;;;;;;;47.40;42.30;;;;;;;9.45;69.17;101410.77;118431;1165;21894;-75
2021/10/28 05:59:25;;;;;;;45.00;40.40;;;;;;;9.35;69.22;101408.31;118201;1180;21881;-75
2021/10/28 06:01:53;;;;;;;46.60;41.70;;;;;;;9.26;69.25;101409.10;118193;1176;21857;-75
2021/10/28 06:04:21;;;;;;;51.80;45.60;;;;;;;9.16;69.36;101407.55;118395;1174;21866;-75
2021/10/28 06:06:49;;;;;;;61.80;55.30;;;;;;;9.04;69.57;101403.41;118678;1176;21867;-74
2021/10/28 06:09:17;;;;;;;64.20;57.60;;;;;;;8.98;69.91;101403.81;118379;1176;21857;-75
2021/10/28 06:11:45;;;;;;;63.10;56.30;;;;;;;8.95;70.38;101403.17;118508;1175;21870;-74
2021/10/28 06:14:17;;;;;;;63.40;56.90;;;;;;;8.94;70.50;101407.27;118316;1176;23100;-74
2021/10/28 06:16:46;;;;;;;68.20;58.60;;;;;;;8.89;70.49;101407.52;118459;1174;21850;-74
2021/10/28 06:19:13;;;;;;;65.40;58.20;;;;;;;8.85;70.72;101408.60;118551;1176;23547;-75
2021/10/28 06:21:41;;;;;;;62.90;56.40;;;;;;;8.83;70.94;101410.36;118729;1173;23375;-75
2021/10/28 06:24:09;;;;;;;59.50;52.90;;;;;;;8.81;70.97;101412.33;118676;1176;23413;-76
2021/10/28 06:26:37;;;;;;;55.70;49.80;;;;;;;8.74;70.71;101412.48;118768;1174;22875;-75
2021/10/28 06:29:05;;;;;;;56.00;50.20;;;;;;;8.62;70.65;101414.77;118857;1167;21846;-75
2021/10/28 06:31:33;;;;;;;57.20;49.00;;;;;;;8.52;70.88;101413.84;118835;1171;22322;-75
2021/10/28 06:34:07;;;;;;;54.10;48.50;;;;;;;8.42;71.03;101415.70;118811;1174;22899;-75
2021/10/28 06:36:36;;;;;;;57.40;51.60;;;;;;;8.34;71.31;101410.42;118380;1174;21859;-76
2021/10/28 06:39:05;;;;;;;61.20;54.80;;;;;;;8.33;71.73;101412.80;118429;1163;21984;-75
2021/10/28 06:41:33;;;;;;;58.70;52.70;;;;;;;8.31;71.96;101412.77;118437;1177;21872;-75
2021/10/28 06:44:06;;;;;;;53.60;47.80;;;;;;;8.31;72.02;101414.52;118323;1177;22880;-74
2021/10/28 06:46:35;;;;;;;62.00;55.30;;;;;;;8.29;72.08;101418.15;118451;1177;21854;-75
2021/10/28 06:49:05;;;;;;;62.50;55.90;;;;;;;8.28;72.10;101420.20;118065;1180;23416;-75
2021/10/28 06:51:39;;;;;;;55.90;49.80;;;;;;;8.30;72.42;101415.98;118046;1177;22133;-74
2021/10/28 06:56:54;;;;;;;54.00;48.30;;;;;;;8.40;72.71;101420.66;118429;1172;21915;-75
2021/10/28 07:04:46;;;;;;;69.70;63.00;;;;;;;8.46;72.17;101413.66;118387;1177;21866;-75
2021/10/28 07:07:15;;;;;;;62.20;55.80;;;;;;;8.46;72.19;101415.92;118258;1176;24354;-74
2021/10/28 07:09:51;;;;;;;60.20;53.90;;;;;;;8.43;71.97;101414.76;118786;1175;23440;-75
2021/10/28 07:12:25;;;;;;;65.20;53.10;;;;;;;8.42;71.97;101412.89;118584;1174;23411;-75
2021/10/28 07:14:58;;;;;;;62.50;55.00;;;;;;;8.42;72.10;101411.83;118598;1175;21872;-75
2021/10/28 07:17:34;;;;;;;62.90;54.70;;;;;;;8.50;72.60;101413.49;118473;1175;21873;-75
2021/10/28 07:20:23;;;;;;;59.40;52.00;;;;;;;8.62;72.79;101417.20;118108;1178;22178;-75
2021/10/28 07:23:12;;;;;;;57.60;51.70;;;;;;;8.73;72.43;101414.20;118129;1179;21897;-75
2021/10/28 07:35:08;;;;;;;55.20;48.90;;;;;;;8.95;71.91;101413.01;118364;1178;21886;-75
2021/10/28 08:05:29;;;;;;;47.80;42.80;;;;;;;10.74;69.10;101401.23;118282;1173;21895;-76
2021/10/28 08:18:51;;;;;;;43.20;38.50;;;;;;;11.53;67.18;101399.36;118501;1176;21872;-74
2021/10/28 08:21:29;;;;;;;;;;;;;;;11.61;66.74;101397.23;118848;1175;21880;-75
2021/10/28 08:29:34;;;;;;;45.50;41.00;;;;;;;11.86;66.21;101388.69;119219;1170;21934;-75
2021/10/28 08:32:06;;;;;;;44.10;39.40;;;;;;;11.95;65.99;101387.05;119396;1170;21865;-74
2021/10/28 08:34:36;;;;;;;41.70;37.40;;;;;;;12.01;65.83;101386.08;119244;1171;21873;-74
2021/10/28 08:39:36;;;;;;;42.60;38.30;;;;;;;12.20;65.87;101381.92;119269;1171;21855;-75
2021/10/28 08:42:13;;;;;;;45.30;40.90;;;;;;;12.38;66.06;101377.61;119264;1170;22867;-75
2021/10/28 08:44:45;;;;;;;43.00;38.90;;;;;;;12.54;65.31;101377.23;119355;1170;22825;-75
2021/10/28 08:47:16;;;;;;;40.90;36.90;;;;;;;12.63;64.80;101376.85;119203;1170;22643;-74
2021/10/28 08:52:51;;;;;;;39.40;35.40;;;;;;;12.72;64.16;101375.92;119474;1170;22531;-75
2021/10/28 08:58:18;;;;;;;45.70;41.30;;;;;;;12.83;63.87;101373.05;119288;1171;21846;-75
2021/10/28 09:24:23;;;;;;;34.30;31.00;;;;;;;13.45;62.61;101357.25;118071;1180;21864;-76
2021/10/28 09:27:13;;;;;;;31.00;27.70;;;;;;;13.55;62.43;101358.01;117948;1180;21907;-75
2021/10/28 09:29:50;;;;;;;34.20;30.80;;;;;;;13.64;62.32;101363.21;118027;1180;23532;-74
2021/10/28 09:32:29;;;;;;;32.20;29.20;;;;;;;13.75;62.15;101360.23;118334;1178;23521;-76
2021/10/28 09:44:10;;;;;;;32.00;28.60;;;;;;;14.47;61.05;101356.32;118791;1175;21864;-73
2021/10/28 09:46:46;;;;;;;29.20;26.50;;;;;;;14.66;61.08;101357.09;118703;1176;22832;-74
2021/10/28 09:51:59;;;;;;;31.60;28.30;;;;;;;14.96;59.85;101354.25;118851;1175;21851;-75
2021/10/28 09:54:38;;;;;;;29.20;26.30;;;;;;;15.09;59.18;101352.19;118719;1175;21855;-75
2021/10/28 10:00:20;;;;;;;28.70;25.50;;;;;;;15.40;58.57;101346.83;118963;1170;22902;-75
2021/10/28 10:02:55;;;;;;;28.00;25.20;;;;;;;15.61;58.50;101344.15;119398;1170;21936;-76
2021/10/28 10:05:27;;;;;;;23.50;21.00;;;;;;;15.84;57.90;101340.52;119485;1170;21852;-75
2021/10/28 10:08:00;;;;;;;23.90;21.60;;;;;;;15.98;56.71;101339.07;119341;1170;21951;-75
2021/10/28 10:10:33;;;;;;;25.20;22.40;;;;;;;16.15;56.44;101337.87;119353;1170;22057;-75
2021/10/28 10:13:03;;;;;;;23.90;21.40;;;;;;;16.38;56.25;101339.08;119037;1173;22979;-74
2021/10/28 10:15:32;;;;;;;22.90;20.70;;;;;;;16.64;55.94;101333.41;119166;1169;22853;-76
2021/10/28 10:18:06;;;;;;;24.20;21.70;;;;;;;16.87;55.12;101333.21;119197;1172;22072;-75
2021/10/28 10:20:45;;;;;;;24.00;21.50;;;;;;;17.07;54.49;101330.19;119218;1170;21872;-75
2021/10/28 11:31:41;;;;;;;19.10;17.10;;;;;;;16.52;50.47;101250.26;118800;1175;22840;-74
2021/10/28 12:46:09;;;;;;;16.40;13.30;;;;;;;15.96;51.98;101185.30;118846;1177;21874;-81
2021/10/28 13:35:22;;;;;;;10.70;9.60;;;;;;;16.18;49.29;101158.82;119361;1173;21865;-75
2021/10/28 13:48:04;;;;;;;;;;;;;;;16.21;49.28;101161.85;119354;1172;21882;-75
2021/10/28 13:55:58;;;;;;;14.70;11.70;;;;;;;16.15;49.48;101159.73;119192;1170;21862;-75
2021/10/28 14:21:12;;;;;;;14.40;9.80;;;;;;;16.05;49.58;101144.48;117975;1181;21989;-78
2021/10/28 15:39:58;;;;;;;42.40;34.40;;;;;;;14.44;55.36;101115.17;117694;1183;21878;-76
2021/10/28 16:25:21;;;;;;;83.00;69.60;;;;;;;13.45;58.74;101081.22;118070;1182;21883;-78
2021/10/28 16:29:09;;;;;;;71.60;55.20;;;;;;;13.40;59.18;101080.20;117689;1184;21899;-76
2021/10/28 16:32:38;;;;;;;63.00;53.90;;;;;;;13.37;59.44;101075.39;117205;1185;23461;-77
2021/10/28 16:36:03;;;;;;;72.40;60.40;;;;;;;13.34;59.69;101078.48;117348;1183;21882;-78
2021/10/28 16:42:47;;;;;;;76.70;65.50;;;;;;;13.18;59.64;101073.00;118198;1180;23240;-75
2021/10/28 16:45:50;;;;;;;;;;;;;;;;;;;;;
2021/10/28 16:48:56;;;;;;;90.30;77.20;;;;;;;13.03;60.22;101075.29;118410;1178;21869;-74
2021/10/28 16:52:15;;;;;;;127.20;98.80;;;;;;;12.96;60.42;101074.66;118832;1175;23473;-75
2021/10/28 16:55:48;;;;;;;112.10;93.20;;;;;;;12.86;60.83;101074.52;118936;1174;22047;-74
2021/10/28 16:58:20;;;;;;;122.70;106.40;;;;;;;12.82;61.22;101074.61;118589;1177;22059;-74
2021/10/28 17:00:59;;;;;;;106.90;88.60;;;;;;;12.78;61.28;101078.35;118063;1179;22897;-76
2021/10/28 17:03:32;;;;;;;114.90;92.10;;;;;;;12.76;61.45;101080.38;118114;1180;22133;-76
2021/10/28 17:06:02;;;;;;;113.70;90.30;;;;;;;12.73;61.66;101081.27;117476;1184;22900;-75
2021/10/28 17:08:36;;;;;;;118.20;92.90;;;;;;;12.65;61.67;101083.15;117630;1183;23474;-75
2021/10/28 17:11:12;;;;;;;117.90;90.70;;;;;;;12.58;61.97;101078.20;117717;1184;24141;-74
2021/10/28 17:14:09;;;;;;;120.80;91.20;;;;;;;12.55;62.20;101071.83;117998;1181;23607;-76
2021/10/28 17:16:58;;;;;;;111.40;91.80;;;;;;;12.50;62.09;101074.02;117869;1180;21875;-75
2021/10/28 17:20:18;;;;;;;127.70;102.90;;;;;;;12.41;62.33;101076.77;117791;1183;21891;-74
2021/10/28 17:23:30;;;;;;;;;;;;;;;;;;;;;
2021/10/28 17:27:12;;;;;;;175.80;136.70;;;;;;;12.21;62.70;101075.27;117654;1185;21896;-75
2021/10/28 17:30:21;;;;;;;159.40;125.40;;;;;;;12.15;63.05;101079.70;117373;1181;22904;-75
2021/10/28 17:33:34;;;;;;;141.00;113.30;;;;;;;12.16;63.14;101076.82;117485;1185;21860;-74
2021/10/28 17:36:46;;;;;;;148.00;120.10;;;;;;;12.17;63.04;101077.26;117533;1184;21871;-77
2021/10/28 17:40:30;;;;;;;130.50;101.90;;;;;;;12.12;62.90;101075.83;117666;1178;23442;-74
2021/10/28 17:44:07;;;;;;;;;;;;;;;;;;;;;
2021/10/28 17:47:19;;;;;;;120.60;94.80;;;;;;;12.00;63.01;101070.35;117647;1168;22900;-76
2021/10/28 17:49:57;;;;;;;113.00;87.50;;;;;;;11.97;63.11;101068.68;117952;1180;21883;-75
2021/10/28 17:52:56;;;;;;;117.20;85.30;;;;;;;11.97;63.24;101063.42;117885;1182;23891;-75
2021/10/28 17:55:59;;;;;;;;;;;;;;;;;;;;;
2021/10/28 17:58:45;;;;;;;96.50;77.80;;;;;;;11.96;63.03;101063.22;117872;1183;23527;-77
2021/10/28 18:02:26;;;;;;;;;;;;;;;;;;;;;
2021/10/28 18:05:25;;;;;;;87.30;71.10;;;;;;;11.85;62.81;101058.35;118147;1179;23384;-75
2021/10/28 18:08:13;;;;;;;107.50;85.10;;;;;;;11.83;62.98;101055.72;118329;1179;21884;-75
2021/10/28 18:10:52;;;;;;;102.00;84.50;;;;;;;11.82;63.03;101053.20;118343;1178;23656;-75
2021/10/28 18:14:08;;;;;;;;;;;;;;;;;;;;;
2021/10/28 18:16:39;;;;;;;71.40;59.60;;;;;;;11.78;62.87;101044.70;119581;1171;22389;-77
2021/10/28 18:19:16;;;;;;;66.20;56.40;;;;;;;11.77;62.91;101046.76;119259;1171;22478;-76
2021/10/28 18:22:04;;;;;;;;;;;;;;;;;;;;;
2021/10/28 18:29:12;;;;;;;49.40;42.80;;;;;;;11.52;62.71;101044.20;118942;1176;21883;-75
2021/10/28 18:32:39;;;;;;;51.10;43.10;;;;;;;11.45;62.98;101041.53;118710;1179;22467;-76
2021/10/28 18:36:09;;;;;;;49.60;41.00;;;;;;;11.42;63.06;101041.02;118426;1174;21885;-75
2021/10/28 18:39:09;;;;;;;46.20;39.60;;;;;;;11.42;63.18;101041.39;118449;1177;21900;-76
2021/10/28 18:42:27;;;;;;;45.30;37.50;;;;;;;11.40;63.10;101037.16;118608;1177;21894;-76
2021/10/28 18:44:56;;;;;;;45.90;39.40;;;;;;;11.38;63.01;101037.75;118046;1180;23469;-75
2021/10/28 18:47:45;;;;;;;51.20;39.00;;;;;;;11.35;63.06;101038.92;118039;1177;23524;-76
2021/10/28 18:50:16;;;;;;;60.60;51.40;;;;;;;11.33;62.96;101035.59;118574;1176;22640;-75
2021/10/28 18:52:55;;;;;;;49.80;40.90;;;;;;;11.29;62.74;101035.05;118667;1177;21873;-76
2021/10/28 18:55:44;;;;;;;55.30;42.20;;;;;;;11.21;62.64;101034.14;118304;1166;21864;-76
2021/10/28 18:58:13;;;;;;;47.60;39.20;;;;;;;11.16;62.95;101034.09;117890;1177;22613;-75
2021/10/28 19:00:49;;;;;;;46.00;38.20;;;;;;;11.15;62.93;101035.98;118147;1181;21869;-75
2021/10/28 19:03:33;;;;;;;45.40;39.10;;;;;;;11.14;63.02;101029.90;117935;1181;22609;-75
2021/10/28 19:06:11;;;;;;;47.10;38.10;;;;;;;11.14;62.87;101030.33;117613;1184;21885;-75
2021/10/28 19:08:43;;;;;;;42.00;36.40;;;;;;;11.10;62.77;101026.96;117220;1183;22849;-75
2021/10/28 19:11:14;;;;;;;41.20;33.60;;;;;;;11.07;62.84;101027.10;117675;1183;21870;-75
2021/10/28 19:13:51;;;;;;;39.90;34.50;;;;;;;11.03;62.79;101029.41;117701;1182;21887;-76
2021/10/28 19:16:19;;;;;;;44.70;35.50;;;;;;;11.01;62.72;101028.02;117877;1181;21892;-76
2021/10/28 19:18:48;;;;;;;45.40;35.60;;;;;;;11.00;62.70;101028.69;117716;1182;21892;-75
2021/10/28 19:21:16;;;;;;;42.10;32.80;;;;;;;11.00;62.77;101029.22;117882;1171;22901;-76
2021/10/28 19:23:46;;;;;;;42.60;32.30;;;;;;;10.99;62.57;101027.89;117983;1179;23554;-76
2021/10/28 19:26:18;;;;;;;39.60;31.90;;;;;;;10.95;62.47;101026.31;118386;1179;21980;-74
2021/10/28 19:29:49;;;;;;;;;;;;;;;;;;;;;
2021/10/28 19:37:35;;;;;;;;;;;;;;;;;;;;;
2021/10/28 19:49:35;;;;;;;;;;;;;;;;;;;;;
2021/10/28 19:57:27;;;;;;;37.80;30.80;;;;;;;10.64;62.74;101009.86;118058;1185;22082;-78
2021/10/28 20:01:21;;;;;;;;;;;;;;;;;;;;;
2021/10/28 20:22:27;;;;;;;31.60;25.70;;;;;;;10.51;62.77;100993.58;117195;1188;21988;-76
2021/10/28 20:26:40;;;;;;;;;;;;;;;;;;;;;
2021/10/28 20:29:30;;;;;;;;;;;;;;;;;;;;;
2021/10/28 20:35:39;;;;;;;;;;;;;;;;;;;;;
2021/10/28 20:38:49;;;;;;;;;;;;;;;;;;;;;
2021/10/28 20:41:49;;;;;;;33.30;26.40;;;;;;;10.64;62.27;100984.15;117935;1181;24158;-77
2021/10/28 20:46:15;;;;;;;;;;;;;;;;;;;;;
2021/10/28 20:49:20;;;;;;;30.20;24.60;;;;;;;10.64;61.96;100982.92;118209;1181;22023;-76
2021/10/28 20:53:02;;;;;;;;;;;;;;;;;;;;;
2021/10/28 20:56:25;;;;;;;29.00;24.90;;;;;;;10.60;61.81;100980.87;118527;1178;24136;-77
2021/10/28 21:04:08;;;;;;;;;;;;;;;;;;;;;
2021/10/28 21:08:02;;;;;;;;;;;;;;;;;;;;;
2021/10/28 21:10:54;;;;;;;27.90;24.80;;;;;;;10.54;61.61;100976.36;117155;1188;23538;-75
2021/10/28 21:13:42;;;;;;;32.10;26.40;;;;;;;10.52;61.53;100972.81;117363;1187;21859;-74
2021/10/28 21:20:19;;;;;;;34.50;27.40;;;;;;;10.43;61.67;100962.17;117314;1189;21915;-75
2021/10/28 21:23:00;;;;;;;31.00;26.30;;;;;;;10.39;61.57;100956.91;116868;1190;23443;-75
2021/10/28 21:26:03;;;;;;;;;;;;;;;;;;;;;
2021/10/28 21:29:11;;;;;;;32.30;27.80;;;;;;;10.27;61.58;100957.52;117511;1185;24208;-76
2021/10/28 21:31:39;;;;;;;32.10;26.90;;;;;;;10.23;61.70;100958.05;117230;1186;21891;-77
2021/10/28 21:34:10;;;;;;;32.00;27.40;;;;;;;10.21;61.72;100959.33;117145;1186;21891;-75
2021/10/28 21:36:58;;;;;;;;;;;;;;;;;;;;;
2021/10/28 21:40:48;;;;;;;30.70;25.90;;;;;;;10.11;61.77;100950.77;116960;1190;22006;-75
2021/10/28 21:43:35;;;;;;;32.80;26.30;;;;;;;10.05;61.89;100948.09;116724;1193;24242;-78
2021/10/28 21:46:22;;;;;;;34.90;27.10;;;;;;;10.03;62.00;100949.17;116526;1193;21874;-75
2021/10/28 21:49:00;;;;;;;29.90;26.10;;;;;;;10.02;61.96;100949.73;116617;1193;21909;-76
2021/10/28 21:52:06;;;;;;;;;;;;;;;;;;;;;
2021/10/28 21:55:22;;;;;;;29.90;26.60;;;;;;;9.98;61.92;100947.55;117163;1189;21914;-77
2021/10/28 21:58:36;;;;;;;32.50;25.60;;;;;;;9.96;61.82;100947.55;117961;1180;21873;-75
2021/10/28 22:02:15;;;;;;;;;;;;;;;;;;;;;